Time;durP1;ratioP1;P1;durP2;ratioP2;P2;SDS_P1;SDS_P2;PMS_P1;PMS_P2;Temp;Humidity;BMP_temperature;BMP_pressure;BME280_temperature;BME280_humidity;BME280_pressure;Samples;Min_cycle;Max_cycle;Signal;HPM_P1;HPM_P2
2022/01/15 00:00:19;;;;;;;27.38;12.13;;;6.00;99.90;;;;;;5060056;28;20044;-51
2022/01/15 00:02:45;;;;;;;31.80;13.25;;;6.10;99.90;;;;;;5062186;28;20040;-51
2022/01/15 00:05:11;;;;;;;47.17;13.80;;;6.00;99.90;;;;;;5061816;28;20029;-50
2022/01/15 00:07:38;;;;;;;39.83;14.70;;;6.10;99.90;;;;;;5062358;28;20047;-51
2022/01/15 00:10:05;;;;;;;35.20;14.32;;;6.10;99.90;;;;;;5061944;28;20033;-47
2022/01/15 00:12:38;;;;;;;41.33;14.45;;;6.00;99.90;;;;;;5062597;28;20040;-52
2022/01/15 00:15:05;;;;;;;54.50;15.00;;;6.90;99.90;;;;;;5064097;28;20039;-51
2022/01/15 00:20:31;;;;;;;57.72;14.40;;;5.90;99.90;;;;;;5022662;28;20049;-53
2022/01/15 00:22:58;;;;;;;127.03;16.80;;;5.90;99.90;;;;;;5022064;28;20107;-47
2022/01/15 00:25:27;;;;;;;26.27;11.85;;;6.00;99.90;;;;;;5021113;28;20120;-54
2022/01/15 00:27:54;;;;;;;35.72;13.80;;;5.90;99.90;;;;;;5022736;28;20779;-51
2022/01/15 00:30:21;;;;;;;45.53;15.05;;;6.10;99.90;;;;;;5022405;28;20042;-46
2022/01/15 00:32:47;;;;;;;30.17;12.73;;;6.00;99.90;;;;;;5022501;28;20146;-50
2022/01/15 00:35:14;;;;;;;33.58;13.88;;;6.10;99.90;;;;;;5022370;28;20045;-50
2022/01/15 00:37:41;;;;;;;39.03;14.73;;;6.00;99.90;;;;;;5023109;28;20521;-48
2022/01/15 00:40:10;;;;;;;72.45;16.58;;;6.00;99.90;;;;;;5021857;28;20046;-49
2022/01/15 00:42:38;;;;;;;44.65;14.70;;;5.90;99.90;;;;;;5021460;28;20061;-52
2022/01/15 00:45:09;;;;;;;186.50;18.27;;;6.10;99.90;;;;;;5021855;28;20034;-50
2022/01/15 00:47:34;;;;;;;40.05;13.55;;;6.10;99.90;;;;;;5021599;28;20183;-51
2022/01/15 00:50:03;;;;;;;72.13;15.90;;;7.00;99.90;;;;;;5021275;28;20100;-54
2022/01/15 00:52:32;;;;;;;45.97;12.95;;;6.10;99.90;;;;;;5022370;28;20585;-50
2022/01/15 00:54:57;;;;;;;67.47;16.48;;;5.80;99.90;;;;;;5024313;28;20037;-50
2022/01/15 00:57:23;;;;;;;59.40;16.17;;;5.90;99.90;;;;;;5065764;28;20051;-48
2022/01/15 00:59:50;;;;;;;40.63;13.73;;;5.70;99.90;;;;;;5065040;28;20066;-52
2022/01/15 01:02:17;;;;;;;44.42;13.82;;;5.80;99.90;;;;;;5064080;28;20048;-52
2022/01/15 01:04:43;;;;;;;72.72;16.05;;;5.90;99.90;;;;;;5065281;28;20036;-53
2022/01/15 01:07:12;;;;;;;39.08;13.45;;;5.90;99.90;;;;;;5064684;28;20386;-54
2022/01/15 01:12:45;;;;;;;38.83;13.15;;;5.80;99.90;;;;;;5065568;28;20059;-53
2022/01/15 01:23:21;;;;;;;41.85;11.85;;;5.80;99.90;;;;;;5063114;28;20049;-52
2022/01/15 01:25:50;;;;;;;31.58;10.55;;;5.90;99.90;;;;;;5063927;28;20641;-52
2022/01/15 01:28:59;;;;;;;49.92;12.98;;;5.90;99.90;;;;;;5063800;28;20440;-52
2022/01/15 01:31:23;;;;;;;34.58;11.27;;;8.00;99.90;;;;;;5060203;28;20056;-49
2022/01/15 01:33:53;;;;;;;45.42;12.15;;;5.80;99.90;;;;;;5064346;28;20036;-53
2022/01/15 01:36:34;;;;;;;42.50;11.45;;;5.90;99.90;;;;;;5064632;28;20271;-49
2022/01/15 01:39:05;;;;;;;47.95;11.90;;;6.20;99.90;;;;;;5062167;28;20044;-47
2022/01/15 01:41:36;;;;;;;39.25;12.05;;;5.70;99.90;;;;;;5064178;28;20032;-50
2022/01/15 01:44:04;;;;;;;34.67;11.05;;;5.90;99.90;;;;;;5063046;28;20041;-50
2022/01/15 01:48:57;;;;;;;29.70;10.70;;;6.00;99.90;;;;;;5064775;28;20617;-52
2022/01/15 01:51:39;;;;;;;32.38;10.35;;;5.80;99.90;;;;;;5063945;28;20101;-54
2022/01/15 01:54:11;;;;;;;31.52;10.85;;;7.00;99.90;;;;;;5063699;28;20536;-52
2022/01/15 01:56:38;;;;;;;32.67;11.15;;;6.70;99.90;;;;;;5063887;28;20154;-50
2022/01/15 01:59:05;;;;;;;31.95;10.57;;;5.90;99.90;;;;;;5063973;28;20056;-47
2022/01/15 02:01:33;;;;;;;28.27;11.10;;;5.80;99.90;;;;;;5064289;28;20040;-52
2022/01/15 02:03:58;;;;;;;35.40;10.93;;;6.40;99.90;;;;;;5062751;28;20032;-53
2022/01/15 02:06:24;;;;;;;32.75;11.95;;;5.80;99.90;;;;;;5060706;28;20049;-53
2022/01/15 02:08:54;;;;;;;41.13;11.85;;;5.90;99.90;;;;;;5061845;28;20044;-52
2022/01/15 02:11:20;;;;;;;46.53;12.18;;;5.80;99.90;;;;;;5062742;28;20059;-52
2022/01/15 02:13:46;;;;;;;35.22;11.60;;;6.00;99.90;;;;;;5064117;28;20037;-52
2022/01/15 02:16:15;;;;;;;54.70;12.70;;;5.90;99.90;;;;;;5063908;28;20508;-48
2022/01/15 02:18:40;;;;;;;32.30;10.50;;;6.10;99.90;;;;;;5063791;28;20087;-52
2022/01/15 02:23:44;;;;;;;42.97;13.15;;;5.90;99.90;;;;;;5063025;28;20611;-52
2022/01/15 02:26:15;;;;;;;35.13;11.65;;;5.80;99.90;;;;;;5064187;28;20097;-48
2022/01/15 02:28:44;;;;;;;39.77;11.57;;;5.80;99.90;;;;;;5064324;28;20047;-49
2022/01/15 02:31:15;;;;;;;46.90;11.65;;;5.80;99.90;;;;;;5063384;28;20052;-51
2022/01/15 02:33:44;;;;;;;25.42;9.63;;;5.80;99.90;;;;;;5064437;28;21166;-53
2022/01/15 02:36:13;;;;;;;30.00;9.68;;;5.90;99.90;;;;;;5063611;28;20051;-51
2022/01/15 02:38:40;;;;;;;34.55;11.15;;;5.80;99.90;;;;;;5063140;28;20083;-53
2022/01/15 02:41:08;;;;;;;35.83;10.95;;;5.70;99.90;;;;;;5064358;28;20123;-53
2022/01/15 02:43:34;;;;;;;28.33;10.05;;;6.80;99.90;;;;;;5064270;28;20150;-54
2022/01/15 02:46:18;;;;;;;38.65;11.10;;;7.20;99.90;;;;;;5062869;28;20090;-52
2022/01/15 02:48:47;;;;;;;27.75;10.30;;;6.10;99.90;;;;;;5062553;28;20032;-53
2022/01/15 02:51:13;;;;;;;43.60;10.90;;;5.80;99.90;;;;;;5062354;28;20049;-53
2022/01/15 02:53:39;;;;;;;25.52;9.85;;;6.80;99.90;;;;;;5062682;28;20082;-52
2022/01/15 02:56:05;;;;;;;30.10;10.02;;;5.80;99.90;;;;;;5061850;28;20032;-51
2022/01/15 02:58:30;;;;;;;24.60;9.65;;;5.70;99.90;;;;;;5062483;28;20454;-51
2022/01/15 03:00:56;;;;;;;26.27;9.30;;;5.60;99.90;;;;;;5061800;28;20052;-51
2022/01/15 03:03:25;;;;;;;24.00;8.98;;;5.60;99.90;;;;;;5062021;28;20044;-52
2022/01/15 03:05:51;;;;;;;24.88;9.00;;;5.70;99.90;;;;;;5059211;28;20399;-50
2022/01/15 03:08:17;;;;;;;18.80;7.10;;;5.70;99.90;;;;;;5062408;28;20044;-51
2022/01/15 03:10:42;;;;;;;19.65;7.30;;;5.80;99.90;;;;;;5060189;28;20090;-52
2022/01/15 03:13:12;;;;;;;40.40;9.65;;;5.80;99.90;;;;;;5061602;28;20147;-52
2022/01/15 03:15:39;;;;;;;25.77;8.20;;;5.80;99.90;;;;;;5063068;28;20090;-50
2022/01/15 03:18:05;;;;;;;23.10;8.57;;;5.70;99.90;;;;;;5062534;28;20505;-54
2022/01/15 03:20:32;;;;;;;25.73;7.90;;;5.80;99.90;;;;;;5061967;28;20067;-52
2022/01/15 03:22:57;;;;;;;27.77;7.80;;;5.80;99.90;;;;;;5061583;28;20028;-52
2022/01/15 03:25:23;;;;;;;18.02;7.22;;;5.80;99.90;;;;;;5062096;28;20047;-52
2022/01/15 03:27:52;;;;;;;27.02;8.18;;;7.00;99.90;;;;;;5063041;28;20036;-50
2022/01/15 03:30:18;;;;;;;22.35;7.20;;;5.70;99.90;;;;;;5060759;28;20480;-52
2022/01/15 03:32:43;;;;;;;21.65;6.85;;;5.70;99.90;;;;;;5061906;28;20044;-51
2022/01/15 03:35:15;;;;;;;21.50;7.30;;;5.70;99.90;;;;;;5058958;28;20095;-52
2022/01/15 03:37:41;;;;;;;23.90;7.70;;;5.80;99.90;;;;;;5061569;28;20531;-51
2022/01/15 03:40:10;;;;;;;21.42;7.63;;;5.50;99.90;;;;;;5060575;28;20302;-54
2022/01/15 03:42:35;;;;;;;19.00;8.10;;;5.80;99.90;;;;;;5063493;28;20044;-50
2022/01/15 03:45:04;;;;;;;18.52;7.40;;;7.50;99.90;;;;;;5063233;28;20447;-52
2022/01/15 03:47:30;;;;;;;18.95;7.10;;;5.60;99.90;;;;;;5060415;28;20067;-52
2022/01/15 03:49:55;;;;;;;16.35;6.97;;;5.70;99.90;;;;;;5062779;28;20493;-50
2022/01/15 03:52:24;;;;;;;19.35;7.15;;;5.60;99.90;;;;;;5061513;28;20072;-47
2022/01/15 03:54:50;;;;;;;20.08;7.50;;;5.60;99.90;;;;;;5062904;28;20102;-49
2022/01/15 03:57:15;;;;;;;18.00;7.40;;;5.70;99.90;;;;;;5061781;28;20037;-49
2022/01/15 03:59:41;;;;;;;18.63;6.35;;;5.40;99.90;;;;;;5060717;28;20072;-48
2022/01/15 04:02:07;;;;;;;22.90;7.45;;;5.50;99.90;;;;;;5061723;28;20409;-53
2022/01/15 04:04:33;;;;;;;24.35;7.53;;;5.50;99.90;;;;;;5063075;28;20090;-52
2022/01/15 04:07:01;;;;;;;18.45;6.93;;;5.50;99.90;;;;;;5062050;28;20040;-49
2022/01/15 04:09:26;;;;;;;18.55;7.53;;;5.70;99.90;;;;;;5061639;28;20421;-50
2022/01/15 04:11:52;;;;;;;17.23;6.72;;;5.60;99.90;;;;;;5061036;28;20039;-49
2022/01/15 04:14:19;;;;;;;17.42;7.57;;;5.50;99.90;;;;;;5061988;28;20119;-52
2022/01/15 04:16:45;;;;;;;21.75;8.52;;;5.50;99.90;;;;;;5063064;28;20496;-51
2022/01/15 04:19:11;;;;;;;20.33;7.70;;;6.20;99.90;;;;;;5060496;28;20088;-49
2022/01/15 04:21:38;;;;;;;19.30;8.07;;;5.60;99.90;;;;;;5061815;28;20094;-51
2022/01/15 04:24:04;;;;;;;19.05;8.13;;;5.60;99.90;;;;;;5060450;28;20067;-50
2022/01/15 04:26:30;;;;;;;18.77;7.70;;;5.20;99.90;;;;;;5061820;28;20037;-52
2022/01/15 04:29:06;;;;;;;19.98;8.18;;;5.30;99.90;;;;;;5061354;28;20082;-49
2022/01/15 04:31:47;;;;;;;15.05;7.22;;;5.60;99.90;;;;;;5059245;28;20032;-50
2022/01/15 04:34:20;;;;;;;21.73;8.13;;;5.40;99.90;;;;;;5059500;28;20047;-48
2022/01/15 04:36:49;;;;;;;28.23;8.63;;;5.40;99.90;;;;;;5061251;28;20157;-48
2022/01/15 04:39:16;;;;;;;16.27;7.00;;;5.50;99.90;;;;;;5060443;28;20079;-49
2022/01/15 04:41:42;;;;;;;14.35;5.63;;;5.40;99.90;;;;;;5061199;28;20548;-51
2022/01/15 04:44:08;;;;;;;11.05;4.65;;;5.50;99.90;;;;;;5060447;28;20145;-46
2022/01/15 04:46:35;;;;;;;9.40;4.22;;;5.50;99.90;;;;;;5061439;28;20040;-49
2022/01/15 04:49:04;;;;;;;10.00;3.70;;;5.30;99.90;;;;;;5061792;28;20141;-51
2022/01/15 04:51:30;;;;;;;9.60;3.65;;;5.40;99.90;;;;;;5062138;28;20105;-51
2022/01/15 04:53:55;;;;;;;12.85;3.78;;;5.20;99.90;;;;;;5059271;28;20501;-52
2022/01/15 04:56:21;;;;;;;16.45;4.22;;;5.40;99.90;;;;;;5060643;28;20043;-50
2022/01/15 04:58:47;;;;;;;10.30;3.78;;;5.50;99.90;;;;;;5059713;28;20136;-48
2022/01/15 05:01:13;;;;;;;10.68;3.42;;;5.50;99.90;;;;;;5065387;28;20056;-51
2022/01/15 05:03:39;;;;;;;9.15;3.53;;;5.30;99.90;;;;;;5064545;28;20039;-47
2022/01/15 05:06:06;;;;;;;10.48;3.50;;;5.30;99.90;;;;;;5064101;28;20044;-48
2022/01/15 05:08:32;;;;;;;8.63;3.75;;;5.40;99.90;;;;;;5064998;28;20085;-50
2022/01/15 05:11:00;;;;;;;7.78;3.00;;;5.30;99.90;;;;;;5065121;28;20040;-51
2022/01/15 05:13:33;;;;;;;8.75;3.47;;;5.40;99.90;;;;;;5063474;28;20713;-50
2022/01/15 05:15:59;;;;;;;10.07;3.35;;;5.40;99.90;;;;;;5063295;28;20044;-50
2022/01/15 05:18:24;;;;;;;7.43;3.05;;;5.20;99.90;;;;;;5065997;28;20032;-50
2022/01/15 05:20:50;;;;;;;14.40;4.07;;;5.20;99.90;;;;;;5063908;28;20051;-47
2022/01/15 05:23:18;;;;;;;7.75;3.20;;;5.20;99.90;;;;;;5065055;28;20086;-50
2022/01/15 05:25:43;;;;;;;10.90;3.97;;;5.40;99.90;;;;;;5065613;28;20774;-49
2022/01/15 05:28:09;;;;;;;6.57;3.03;;;6.30;99.90;;;;;;5066529;28;20068;-50
2022/01/15 05:30:35;;;;;;;12.35;4.32;;;5.40;99.90;;;;;;5064547;28;20119;-47
2022/01/15 05:33:00;;;;;;;10.77;3.60;;;5.30;99.90;;;;;;5065967;28;20040;-51
2022/01/15 05:35:27;;;;;;;12.30;3.80;;;5.20;99.90;;;;;;5065105;28;20398;-49
2022/01/15 05:37:59;;;;;;;12.57;3.72;;;5.20;99.90;;;;;;5066081;28;20895;-51
2022/01/15 05:40:25;;;;;;;10.60;4.60;;;5.30;99.90;;;;;;5065436;28;20115;-52
2022/01/15 05:42:52;;;;;;;10.20;4.63;;;5.40;99.90;;;;;;5064112;28;20477;-48
2022/01/15 05:45:22;;;;;;;9.77;4.13;;;5.30;99.90;;;;;;5064166;28;20040;-50
2022/01/15 05:47:50;;;;;;;8.60;4.55;;;5.40;99.90;;;;;;5063448;28;20048;-51
2022/01/15 05:50:16;;;;;;;9.32;3.75;;;5.40;99.90;;;;;;5062573;28;20061;-52
2022/01/15 05:52:42;;;;;;;8.73;4.13;;;5.20;99.90;;;;;;5064245;28;20089;-51
2022/01/15 05:55:08;;;;;;;9.93;4.50;;;5.20;99.90;;;;;;5065026;28;20644;-49
2022/01/15 05:57:34;;;;;;;9.98;4.32;;;5.20;99.90;;;;;;5064049;28;20039;-47
2022/01/15 05:59:59;;;;;;;11.05;4.35;;;5.10;99.90;;;;;;5063199;28;20037;-49
2022/01/15 06:02:25;;;;;;;11.02;4.50;;;5.20;99.90;;;;;;5061719;28;20044;-48
2022/01/15 06:04:51;;;;;;;10.57;4.57;;;5.30;99.90;;;;;;5061808;28;20161;-52
2022/01/15 06:07:17;;;;;;;9.65;3.50;;;5.10;99.90;;;;;;5063584;28;20079;-51
2022/01/15 06:09:44;;;;;;;10.15;4.13;;;5.20;99.90;;;;;;5060480;28;20194;-53
2022/01/15 06:12:10;;;;;;;9.52;4.00;;;5.20;99.90;;;;;;5063277;28;20097;-52
2022/01/15 06:14:36;;;;;;;10.80;4.20;;;5.20;99.90;;;;;;5063383;28;20037;-53
2022/01/15 06:17:04;;;;;;;9.55;3.97;;;5.10;99.90;;;;;;5062709;28;20374;-50
2022/01/15 06:19:30;;;;;;;10.38;4.32;;;5.20;99.90;;;;;;5062324;28;20098;-49
2022/01/15 06:21:56;;;;;;;12.07;4.68;;;5.20;99.90;;;;;;5062821;28;20052;-48
2022/01/15 06:24:24;;;;;;;8.43;4.10;;;5.00;99.90;;;;;;5061736;28;20040;-49
2022/01/15 06:26:49;;;;;;;7.63;3.17;;;5.00;99.90;;;;;;5063146;28;20133;-49
2022/01/15 06:29:15;;;;;;;8.05;3.78;;;5.20;99.90;;;;;;5063247;28;20126;-53
2022/01/15 06:31:40;;;;;;;8.65;4.15;;;5.10;99.90;;;;;;5063114;28;20024;-52
2022/01/15 06:34:08;;;;;;;8.00;3.75;;;4.90;99.90;;;;;;5061796;28;20136;-50
2022/01/15 06:36:34;;;;;;;7.93;3.90;;;5.00;99.90;;;;;;5062979;28;20048;-52
2022/01/15 06:39:00;;;;;;;9.63;4.20;;;4.90;99.90;;;;;;5061925;28;20485;-52
2022/01/15 06:41:27;;;;;;;10.23;3.88;;;5.10;99.90;;;;;;5063402;28;20700;-51
2022/01/15 06:43:53;;;;;;;8.82;4.40;;;5.10;99.90;;;;;;5064331;28;20497;-49
2022/01/15 06:46:18;;;;;;;8.60;4.80;;;5.00;99.90;;;;;;5063499;28;20033;-53
2022/01/15 06:48:46;;;;;;;8.40;3.80;;;4.90;99.90;;;;;;5062719;28;20044;-53
2022/01/15 06:51:12;;;;;;;9.60;4.00;;;;;;;;;;5062738;28;20507;-53
2022/01/15 06:53:38;;;;;;;7.95;3.90;;;5.00;99.90;;;;;;5063211;28;20131;-49
2022/01/15 06:56:04;;;;;;;6.90;3.30;;;5.00;99.90;;;;;;5064004;28;20127;-53
2022/01/15 06:58:29;;;;;;;8.98;3.45;;;4.90;99.90;;;;;;5062835;28;20123;-54
2022/01/15 07:00:55;;;;;;;7.78;3.58;;;4.80;99.90;;;;;;5063538;28;20066;-46
2022/01/15 07:03:21;;;;;;;7.40;3.40;;;5.10;99.90;;;;;;5064099;28;20033;-47
2022/01/15 07:05:46;;;;;;;6.97;3.50;;;5.00;99.90;;;;;;5062129;28;20501;-51
2022/01/15 07:08:12;;;;;;;7.85;3.50;;;5.00;99.90;;;;;;5044760;28;20080;-53
2022/01/15 07:10:41;;;;;;;9.40;4.13;;;4.90;99.90;;;;;;5062581;28;20044;-49
2022/01/15 07:13:07;;;;;;;8.75;3.55;;;4.90;99.90;;;;;;5062328;28;20098;-53
2022/01/15 07:15:33;;;;;;;7.22;3.55;;;4.90;99.90;;;;;;5062602;28;20438;-53
2022/01/15 07:17:59;;;;;;;8.10;3.30;;;4.90;99.90;;;;;;5060563;28;20083;-53
2022/01/15 07:20:26;;;;;;;7.53;3.47;;;4.90;99.90;;;;;;5060755;28;20060;-51
2022/01/15 07:22:52;;;;;;;6.55;2.58;;;5.00;99.90;;;;;;5061735;28;20032;-53
2022/01/15 07:25:18;;;;;;;7.25;3.00;;;4.90;99.90;;;;;;5061944;28;20064;-50
2022/01/15 07:27:44;;;;;;;6.00;2.70;;;4.80;99.90;;;;;;5061568;28;20079;-48
2022/01/15 07:30:13;;;;;;;5.60;2.50;;;4.80;99.90;;;;;;5062631;28;20183;-53
2022/01/15 07:32:40;;;;;;;6.45;3.50;;;4.90;99.90;;;;;;5060402;28;20032;-53
2022/01/15 07:35:08;;;;;;;6.93;3.22;;;4.90;99.90;;;;;;5060283;28;20033;-51
2022/01/15 07:37:35;;;;;;;6.18;3.03;;;4.90;99.90;;;;;;5061982;28;20166;-53
2022/01/15 07:40:01;;;;;;;7.20;3.47;;;4.80;99.90;;;;;;5061100;28;20043;-53
2022/01/15 07:42:35;;;;;;;7.00;3.28;;;5.00;99.90;;;;;;5061278;28;20047;-52
2022/01/15 07:45:05;;;;;;;7.72;3.15;;;4.80;99.90;;;;;;5060682;28;20120;-50
2022/01/15 07:47:33;;;;;;;7.43;3.40;;;4.90;99.90;;;;;;5059212;28;20044;-52
2022/01/15 07:49:58;;;;;;;6.55;3.30;;;4.80;99.90;;;;;;5059826;28;20056;-54
2022/01/15 07:52:24;;;;;;;7.07;3.67;;;5.00;99.90;;;;;;5062247;28;20126;-51
2022/01/15 07:54:50;;;;;;;6.57;3.20;;;5.00;99.90;;;;;;5062337;28;20477;-49
2022/01/15 07:57:16;;;;;;;7.93;4.10;;;5.00;99.90;;;;;;5063883;28;20037;-51
2022/01/15 07:59:41;;;;;;;11.18;4.88;;;4.80;99.90;;;;;;5064170;28;20048;-50
2022/01/15 08:02:07;;;;;;;9.57;4.53;;;5.00;99.90;;;;;;5064012;28;20079;-51
2022/01/15 08:04:33;;;;;;;10.15;3.88;;;4.90;99.90;;;;;;5062440;28;20094;-53
2022/01/15 08:06:59;;;;;;;10.40;4.85;;;5.00;99.90;;;;;;5064523;28;20032;-52
2022/01/15 08:09:26;;;;;;;9.80;4.07;;;4.90;99.90;;;;;;5063814;28;20040;-53
2022/01/15 08:11:52;;;;;;;9.93;4.47;;;;;;;;;;5061865;28;20050;-51
2022/01/15 08:14:18;;;;;;;10.35;4.93;;;5.00;99.90;;;;;;5063709;28;20058;-51
2022/01/15 08:16:47;;;;;;;12.25;6.05;;;5.00;99.90;;;;;;5063531;28;20051;-52
2022/01/15 08:19:13;;;;;;;11.75;5.40;;;4.80;99.90;;;;;;5060116;28;20040;-54
2022/01/15 08:21:39;;;;;;;12.55;5.60;;;;;;;;;;5059213;28;20126;-51
2022/01/15 08:24:05;;;;;;;14.68;5.65;;;;;;;;;;5061564;28;20041;-50
2022/01/15 08:26:31;;;;;;;10.75;5.20;;;4.90;99.90;;;;;;5061611;28;20555;-52
2022/01/15 08:28:56;;;;;;;11.63;5.72;;;5.00;99.90;;;;;;5062746;28;20033;-49
2022/01/15 08:31:25;;;;;;;13.55;6.45;;;4.90;99.90;;;;;;5061709;28;20066;-50
2022/01/15 08:33:51;;;;;;;13.68;6.45;;;5.00;99.90;;;;;;5063126;28;20048;-53
2022/01/15 08:36:18;;;;;;;17.55;7.55;;;5.00;99.90;;;;;;5065699;28;20048;-50
2022/01/15 08:38:45;;;;;;;16.08;7.68;;;5.00;99.90;;;;;;5065548;28;20396;-52
2022/01/15 08:41:13;;;;;;;17.20;7.38;;;5.00;99.90;;;;;;5065101;28;20135;-52
2022/01/15 08:43:39;;;;;;;16.10;7.90;;;4.90;99.90;;;;;;5046565;28;20074;-53
2022/01/15 08:46:05;;;;;;;18.30;8.13;;;5.00;99.90;;;;;;5066091;28;20047;-51
2022/01/15 08:48:31;;;;;;;16.08;7.50;;;5.00;99.90;;;;;;5063826;28;20033;-53
2022/01/15 08:50:56;;;;;;;16.23;6.95;;;4.90;99.90;;;;;;5065716;28;20071;-53
2022/01/15 08:53:22;;;;;;;15.68;7.63;;;4.90;99.90;;;;;;5065664;28;20032;-48
2022/01/15 08:55:48;;;;;;;13.95;6.97;;;5.00;99.90;;;;;;5064675;28;20059;-51
2022/01/15 08:58:16;;;;;;;10.77;5.68;;;4.90;99.90;;;;;;5065496;28;20060;-50
2022/01/15 09:00:41;;;;;;;12.85;6.55;;;5.00;99.90;;;;;;5064641;28;20131;-52
2022/01/15 09:03:08;;;;;;;14.23;6.80;;;;;;;;;;5066502;28;20163;-51
2022/01/15 09:05:36;;;;;;;10.75;5.68;;;4.90;99.90;;;;;;5065340;28;20051;-50
2022/01/15 09:08:03;;;;;;;12.65;6.10;;;4.90;99.90;;;;;;5065865;28;20040;-52
2022/01/15 09:10:30;;;;;;;12.95;6.32;;;;;;;;;;5064804;28;20061;-50
2022/01/15 09:12:55;;;;;;;12.45;5.93;;;5.00;99.90;;;;;;5066301;28;20074;-51
2022/01/15 09:15:21;;;;;;;12.68;6.30;;;4.90;99.90;;;;;;5065109;28;20062;-54
2022/01/15 09:17:47;;;;;;;13.75;6.53;;;5.10;99.90;;;;;;5066121;28;20033;-54
2022/01/15 09:20:15;;;;;;;12.80;6.45;;;5.00;99.90;;;;;;5066097;28;20094;-52
2022/01/15 09:22:40;;;;;;;13.07;6.25;;;4.90;99.90;;;;;;5065442;28;20035;-47
2022/01/15 09:25:06;;;;;;;13.73;6.47;;;4.90;99.90;;;;;;5063848;28;20139;-52
2022/01/15 09:30:19;;;;;;;12.30;5.82;;;5.00;99.90;;;;;;5063891;28;20051;-50
2022/01/15 09:32:53;;;;;;;10.05;5.82;;;4.90;99.90;;;;;;5063683;28;20074;-52
2022/01/15 09:35:21;;;;;;;12.82;6.18;;;4.90;99.90;;;;;;5063789;28;20060;-52
2022/01/15 09:37:49;;;;;;;12.77;6.88;;;5.00;99.90;;;;;;5065230;28;20105;-50
2022/01/15 09:40:16;;;;;;;17.08;7.32;;;5.00;99.90;;;;;;5062925;28;20119;-50
2022/01/15 09:42:44;;;;;;;17.40;8.95;;;5.00;99.90;;;;;;5063737;28;20129;-49
2022/01/15 09:45:11;;;;;;;15.35;8.23;;;5.00;99.90;;;;;;5063638;28;20041;-52
2022/01/15 09:47:37;;;;;;;19.55;8.70;;;;;;;;;;5063869;28;20041;-51
2022/01/15 09:50:06;;;;;;;18.30;8.52;;;4.90;99.90;;;;;;5062177;28;20204;-51
2022/01/15 09:52:33;;;;;;;17.35;8.35;;;5.00;99.90;;;;;;5063644;28;20032;-53
2022/01/15 09:55:00;;;;;;;21.23;9.40;;;5.10;99.90;;;;;;5062351;28;20124;-48
2022/01/15 09:57:28;;;;;;;22.95;9.93;;;5.00;99.90;;;;;;5063783;28;20625;-54
2022/01/15 09:59:54;;;;;;;16.63;8.85;;;5.10;99.90;;;;;;5062999;28;20117;-49
2022/01/15 10:02:20;;;;;;;20.05;9.95;;;5.00;99.90;;;;;;5063219;28;20485;-50
2022/01/15 10:04:46;;;;;;;22.52;9.98;;;5.00;99.90;;;;;;5063049;28;20044;-51
2022/01/15 10:07:15;;;;;;;22.27;10.30;;;4.90;99.90;;;;;;5064505;28;20524;-52
2022/01/15 10:09:43;;;;;;;22.48;10.30;;;5.10;99.90;;;;;;5061360;28;20562;-52
2022/01/15 10:12:10;;;;;;;20.10;9.32;;;4.90;99.90;;;;;;5062907;28;20109;-52
2022/01/15 10:14:39;;;;;;;19.02;9.40;;;5.10;99.90;;;;;;5063263;28;20144;-52
2022/01/15 10:17:27;;;;;;;18.77;9.57;;;4.90;99.90;;;;;;5063211;28;20052;-51
2022/01/15 10:19:53;;;;;;;18.80;10.10;;;5.00;99.90;;;;;;5062144;28;20413;-50
2022/01/15 10:22:21;;;;;;;19.00;9.52;;;5.10;99.90;;;;;;5060819;28;20351;-51
2022/01/15 10:24:55;;;;;;;21.38;9.98;;;5.10;99.90;;;;;;5062462;28;20036;-52
2022/01/15 10:27:31;;;;;;;23.42;11.82;;;5.10;99.90;;;;;;5062598;28;20520;-53
2022/01/15 10:30:13;;;;;;;20.90;10.13;;;5.00;99.90;;;;;;5064497;28;20044;-51
2022/01/15 10:32:51;;;;;;;21.50;9.73;;;5.10;99.90;;;;;;5063576;28;20041;-50
2022/01/15 10:35:17;;;;;;;21.70;9.80;;;5.10;99.90;;;;;;5062955;28;20032;-50
2022/01/15 10:38:00;;;;;;;24.85;11.05;;;5.20;99.90;;;;;;5061799;28;20131;-52
2022/01/15 10:40:55;;;;;;;23.75;10.70;;;5.20;99.90;;;;;;5064867;28;20051;-51
2022/01/15 10:43:31;;;;;;;27.17;12.75;;;5.00;99.90;;;;;;5062037;28;20072;-53
2022/01/15 10:46:01;;;;;;;22.27;10.52;;;5.00;99.90;;;;;;5064679;28;20047;-52
2022/01/15 10:48:33;;;;;;;26.15;12.35;;;5.00;99.90;;;;;;5062730;28;20071;-51
2022/01/15 10:51:00;;;;;;;;;;;5.10;99.90;;;;;;5063846;28;20532;-53
2022/01/15 10:53:46;;;;;;;28.30;12.15;;;5.00;99.90;;;;;;5063972;28;20344;-53
2022/01/15 10:56:15;;;;;;;31.48;13.35;;;5.10;99.90;;;;;;5062772;28;20040;-53
2022/01/15 10:58:44;;;;;;;29.50;13.20;;;6.20;99.90;;;;;;5061520;28;20044;-52
2022/01/15 11:01:25;;;;;;;32.38;13.98;;;4.90;99.90;;;;;;5063775;28;20075;-50
2022/01/15 11:03:51;;;;;;;28.15;13.32;;;5.00;99.90;;;;;;5062707;28;20037;-52
2022/01/15 11:06:36;;;;;;;25.63;11.55;;;5.00;99.90;;;;;;5061003;28;20047;-53
2022/01/15 11:09:02;;;;;;;25.25;12.15;;;5.00;99.90;;;;;;5063015;28;20032;-52
2022/01/15 11:11:32;;;;;;;25.40;11.70;;;4.90;99.90;;;;;;5062632;28;20036;-52
2022/01/15 11:14:00;;;;;;;25.55;11.75;;;4.80;99.90;;;;;;5061584;28;20036;-51
2022/01/15 11:16:25;;;;;;;27.95;12.90;;;4.90;99.90;;;;;;5061604;28;20462;-53
2022/01/15 11:18:55;;;;;;;29.58;13.98;;;4.80;99.90;;;;;;5061408;28;20050;-52
2022/01/15 11:21:24;;;;;;;32.30;14.50;;;4.80;99.90;;;;;;5060399;28;20044;-51
2022/01/15 11:23:50;;;;;;;33.70;15.07;;;4.90;99.90;;;;;;5061861;28;20417;-52
2022/01/15 11:26:26;;;;;;;32.08;14.05;;;4.90;99.90;;;;;;5062168;28;20637;-52
2022/01/15 11:28:53;;;;;;;36.70;15.05;;;4.80;99.90;;;;;;5061143;28;20051;-49
2022/01/15 11:31:27;;;;;;;32.40;13.68;;;3.80;99.90;;;;;;5061126;28;20044;-53
2022/01/15 11:33:55;;;;;;;32.17;12.90;;;4.90;99.90;;;;;;5061589;28;20051;-54
2022/01/15 11:36:41;;;;;;;38.83;14.68;;;4.80;99.90;;;;;;5060236;28;20509;-53
2022/01/15 11:39:28;;;;;;;34.28;14.02;;;4.80;99.90;;;;;;5061515;28;20040;-52
2022/01/15 11:41:55;;;;;;;33.97;14.85;;;;;;;;;;5061977;28;20050;-50
2022/01/15 11:44:29;;;;;;;34.88;14.23;;;4.60;99.90;;;;;;5062228;28;20400;-50
2022/01/15 11:47:05;;;;;;;33.67;14.10;;;4.70;99.90;;;;;;5062281;28;20087;-53
2022/01/15 11:49:44;;;;;;;32.83;13.95;;;4.50;99.90;;;;;;5061088;28;20044;-52
2022/01/15 11:52:14;;;;;;;34.80;13.88;;;;;;;;;;5060642;28;20835;-53
2022/01/15 11:54:58;;;;;;;38.85;15.32;;;4.80;99.90;;;;;;5060445;28;20544;-52
2022/01/15 11:57:27;;;;;;;36.35;15.40;;;4.70;99.90;;;;;;5094674;28;20060;-51
2022/01/15 11:59:55;;;;;;;45.30;16.92;;;4.70;99.90;;;;;;5062919;28;20064;-51
2022/01/15 12:02:35;;;;;;;42.75;15.80;;;4.60;99.90;;;;;;5063108;28;20101;-50
2022/01/15 12:05:16;;;;;;;40.13;16.17;;;4.60;99.90;;;;;;5062135;28;20040;-50
2022/01/15 12:08:10;;;;;;;35.92;14.57;;;4.50;99.90;;;;;;5060669;28;20047;-52
2022/01/15 12:10:41;;;;;;;44.05;14.27;;;4.80;99.90;;;;;;5062571;28;20069;-52
2022/01/15 12:13:12;;;;;;;45.33;16.00;;;4.60;99.90;;;;;;5061839;28;20539;-53
2022/01/15 12:15:38;;;;;;;44.08;14.50;;;4.60;99.90;;;;;;5062162;28;20252;-52
2022/01/15 12:18:18;;;;;;;49.00;15.40;;;4.40;99.90;;;;;;5062488;28;20064;-57
2022/01/15 12:20:45;;;;;;;34.30;13.50;;;4.50;99.90;;;;;;5061721;28;20047;-50
2022/01/15 12:23:37;;;;;;;39.15;13.80;;;4.50;99.90;;;;;;5060899;28;20071;-49
2022/01/15 12:26:10;;;;;;;38.20;13.73;;;4.50;99.90;;;;;;4978001;28;20567;-50
2022/01/15 12:28:36;;;;;;;37.28;15.43;;;;;;;;;;4977323;28;20129;-54
2022/01/15 12:31:02;;;;;;;37.70;14.98;;;;;;;;;;4979238;28;20605;-51
2022/01/15 12:33:28;;;;;;;35.47;14.43;;;;;;;;;;4978352;28;20042;-53
2022/01/15 12:35:56;;;;;;;34.75;13.98;;;4.90;99.90;;;;;;4977820;28;21464;-49
2022/01/15 12:38:27;;;;;;;36.03;14.05;;;4.60;99.90;;;;;;4979365;28;20459;-50
2022/01/15 12:41:05;;;;;;;31.02;12.63;;;4.50;99.90;;;;;;4978955;28;20073;-53
2022/01/15 12:43:34;;;;;;;36.35;13.20;;;4.50;99.90;;;;;;4976929;28;20109;-49
2022/01/15 12:46:02;;;;;;;37.47;14.43;;;4.60;99.90;;;;;;4979080;28;20034;-50
2022/01/15 12:48:34;;;;;;;47.22;15.27;;;4.60;99.90;;;;;;4977232;28;20181;-53
2022/01/15 12:51:06;;;;;;;33.38;13.95;;;4.50;99.90;;;;;;4977853;28;20046;-50
2022/01/15 12:53:37;;;;;;;43.83;14.88;;;4.30;99.90;;;;;;4977148;28;20038;-50
2022/01/15 12:56:08;;;;;;;34.13;15.93;;;4.40;99.90;;;;;;4978989;28;20057;-52
2022/01/15 12:58:34;;;;;;;53.47;16.70;;;;;;;;;;4977429;28;20043;-53
2022/01/15 13:01:03;;;;;;;48.85;16.95;;;;;;;;;;4980442;28;20925;-52
2022/01/15 13:03:30;;;;;;;39.85;16.40;;;;;;;;;;5029236;28;20064;-51
2022/01/15 13:05:59;;;;;;;42.88;17.00;;;4.50;99.90;;;;;;5060822;28;20375;-50
2022/01/15 13:08:39;;;;;;;38.97;16.40;;;4.50;99.90;;;;;;5059146;28;20075;-54
2022/01/15 13:11:29;;;;;;;34.95;15.68;;;4.40;99.90;;;;;;5059229;28;20041;-52
2022/01/15 13:14:03;;;;;;;35.33;15.52;;;4.40;99.90;;;;;;5059757;28;20068;-50
2022/01/15 13:16:32;;;;;;;38.13;17.35;;;;;;;;;;5060642;28;20072;-52
2022/01/15 13:19:03;;;;;;;38.63;16.45;;;4.60;99.90;;;;;;5060580;28;20040;-52